x

La Have Bank (44150) Wave Buoy

6:00pm - Sun 21st Sep 2014 All times are ADT. -3 hours from GMT.

  • Sig Wave height 5.6ft
  • Peak Period 5s
  • Wind
    27mph, 34mph gusts
  • Sea Temp 70°f
  • Air Temp 72°f
  • Sea Pressure 1012.4mb
  • La Have Bank
  • La Have Bank

More Historic Weather Station data

Upgrade to MSW Pro to gain access to the past 30 days of data for over 8000 Wavebouys and Weather Stations around the globe.

Join Pro

Comparision Forecast

View Surf forecast
   
Sun 09/21 6:00pm 5.5ft 5s 27 34 mph 1012.4mb 70f 72f
5:00pm 5ft 5s 18 20 mph 1013.8mb 69f 72f
4:00pm 5ft 5s 13 16 mph 1015.2mb 69f 71f
3:00pm 5ft 5s 20 25 mph 1016.1mb 69f 71f
2:00pm 4ft 11s 27 31 mph 1017.4mb 68f 72f
1:00pm 3.5ft 6s 16 18 mph 1019mb 68f 72f
12:00pm 3.5ft 9s 16 18 mph 1019.7mb 67f 71f
11:00am 3.5ft 5s 16 18 mph 1020.4mb 65f 70f
10:00am 3.5ft 10s 13 16 mph 1020.9mb 64f 69f
9:00am 3.5ft 6s 11
mph
1021mb 64f 69f
8:00am 3.5ft 5s 9 11 mph 1021.2mb 64f 69f
7:00am 3.5ft 6s 11 13 mph 1021.3mb 64f 69f
6:00am 3.5ft 6s 13
mph
1021.2mb 64f 69f
5:00am 4ft 10s 11 13 mph 1021.4mb 64f 69f
4:00am 4ft 5s 11 13 mph 1021.8mb 65f 69f
3:00am 4ft 5s 13 18 mph 1022.6mb 67f 69f
2:00am 3.5ft 5s 18 22 mph 1023.4mb 68f 69f
1:00am 3.5ft 5s 16 20 mph 1023.7mb 68f 69f
12:00am 3.5ft 11s 13 18 mph 1024.2mb 67f 69f
Sat 09/20 11:00pm 3.5ft 5s 13 16 mph 1024.5mb 67f 68f
10:00pm 4.5ft 5s 13 18 mph 1024.9mb 67f 69f
9:00pm 4.5ft 5s 18 20 mph 1024.9mb 66f 69f
8:00pm 4.5ft 5s 18 22 mph 1025.1mb 66f 68f
7:00pm 4.5ft  -  18 20 mph 1025.3mb 66f 68f
6:00pm 4.5ft 5s 18 22 mph 1025.7mb 65f 68f
5:00pm 4ft 5s 20 25 mph 1026.1mb 65f 67f
4:00pm 4ft 4s 18 22 mph 1026.8mb 65f 66f
3:00pm 3.5ft 4s 18 20 mph 1027.2mb 65f 65f
2:00pm 3.5ft 4s 18 22 mph 1027.9mb 65f 64f
1:00pm 3.5ft 4s 16 22 mph 1029mb 65f 63f
12:00pm 3.5ft 4s 16 22 mph 1029.5mb 65f 62f
11:00am 3ft 12s 18 25 mph 1030.1mb 65f 62f
10:00am 2.5ft 8s 16 20 mph 1030.5mb 64f 61f
9:00am 2.5ft 8s 16 18 mph 1030.3mb 64f 60f
8:00am 2.5ft 5s 9 13 mph 1030.7mb 64f 59f
7:00am 3ft 8s 9 13 mph 1030.5mb 65f 58f
6:00am 3ft 5s 7 11 mph 1030.6mb 65f 58f
5:00am 3.5ft 6s 4 7 mph 1030.3mb 65f 57f
4:00am 3.5ft 5s 7 9 mph 1030mb 65f 57f
3:00am 3.5ft 6s 7 11 mph 1030.1mb 65f 56f
2:00am 3.5ft 6s 7 11 mph 1030.2mb 64f 56f
1:00am 4.5ft 5s 7 11 mph 1030.5mb 64f 56f
12:00am 4.5ft 6s 9 16 mph 1030.5mb 64f 55f
Fri 09/19 11:00pm  -   -  13
mph
- - -
10:00pm 5ft 6s 13 18 mph 1029.5mb 64f 55f
9:00pm 5ft 6s 16 22 mph 1028.7mb 64f 55f
8:00pm 5.5ft 7s 16 20 mph 1027.9mb 64f 55f
7:00pm 6ft 7s 20 25 mph 1027.4mb 64f 55f
6:00pm 6ft 6s 20 29 mph 1027mb 64f 54f
4:00pm 6ft 6s 22 27 mph 1025.8mb 64f 53f
3:00pm 6ft 6s 22 27 mph 1025.2mb 64f 53f
2:00pm 6ft 6s 20 27 mph 1024.5mb 65f 54f
1:00pm 6.5ft 6s 22 27 mph 1023.8mb 65f 54f
12:00pm 6ft 6s 22 31 mph 1023.3mb 65f 55f
11:00am 6ft 6s 20 25 mph 1022.7mb 64f 56f
10:00am 6ft 6s 20 25 mph 1022mb 64f 57f
9:00am 5.5ft 6s 20 25 mph 1021mb 64f 58f
8:00am 5ft 6s 20 25 mph 1019.7mb 64f 59f
7:00am 4.5ft 5s 18 20 mph 1018.7mb 64f 60f
6:00am 4.5ft 8s 18 20 mph 1017.7mb 65f 60f
4:00am 4.5ft 9s 20 25 mph 1015.9mb 65f 61f
3:00am 4ft 9s 18 22 mph 1015.3mb 65f 62f
2:00am 4ft 9s 18 22 mph 1015.1mb 65f 62f
1:00am 3.5ft 8s 18 20 mph 1014.9mb 64f 63f
12:00am 3ft 10s 11 13 mph 1014.9mb 64f 63f
Thu 09/18 11:00pm 3ft 11s 13
mph
1015mb 64f 63f
10:00pm 3ft 10s 11 13 mph 1014.7mb 64f 63f
9:00pm 3ft 10s 9 11 mph 1014.3mb 64f 63f
8:00pm 3ft 10s 11 13 mph 1013.5mb 64f 63f
7:00pm 3ft 10s 11 13 mph 1013mb 65f 64f
6:00pm 3ft 10s 11 13 mph 1012.7mb 65f 64f
5:00pm 3.5ft 10s 9 11 mph 1012.6mb 65f 65f
4:00pm 2.5ft 10s 7 9 mph 1012.7mb 65f 65f
3:00pm 3.5ft 10s 7 9 mph 1012.8mb 65f 65f
2:00pm 3.5ft 11s 7
mph
1013.4mb 65f 65f
1:00pm 3ft 11s 9
mph
1013.9mb 65f 64f
12:00pm 3.5ft 10s 9
mph
1014.2mb 65f 64f
11:00am 3ft 10s 9 11 mph 1014.7mb 65f 64f
10:00am 3.5ft 10s 9 11 mph 1014.9mb 65f 63f
9:00am 3.5ft 11s 7 9 mph 1014.9mb 64f 63f
8:00am 3.5ft 12s 7
mph
1015mb 64f 63f
7:00am 3.5ft 12s 4
mph
1014.9mb 64f 62f
6:00am 4ft 13s 4
mph
1014.7mb 64f 62f
5:00am 4.5ft 14s 2 4 mph 1014.8mb 64f 62f
4:00am 4.5ft 12s  -  mph 1015mb 64f 62f
3:00am 5ft 13s  -  2 mph 1015.6mb 64f 62f
2:00am 6ft 14s 2 4 mph 1016.2mb 65f 62f
1:00am 5.5ft 14s 7 9 mph 1016.4mb 65f 63f
12:00am 6ft 14s 7 9 mph 1016.7mb 65f 63f
Wed 09/17 11:00pm 7ft 15s 7 9 mph 1016.8mb 65f 63f